createdAt,value
2022-08-10T00:00:44.954Z,13.4
2022-08-10T00:01:45.064Z,13.3
2022-08-10T00:02:44.954Z,13.3
2022-08-10T00:03:44.961Z,13.2
2022-08-10T00:04:44.951Z,13.2
2022-08-10T00:05:52.681Z,13.1
2022-08-10T00:06:44.996Z,13
2022-08-10T00:07:44.955Z,13
2022-08-10T00:08:44.985Z,13
2022-08-10T00:09:51.134Z,12.9
2022-08-10T00:10:44.969Z,12.8
2022-08-10T00:11:44.955Z,12.7
2022-08-10T00:12:53.539Z,12.6
2022-08-10T00:13:44.977Z,12.4
2022-08-10T00:14:44.959Z,12.6
2022-08-10T00:15:53.528Z,12.5
2022-08-10T00:16:44.977Z,12.5
2022-08-10T00:17:44.955Z,12.5
2022-08-10T00:18:38.693Z,12.5
2022-08-10T00:20:03.116Z,12.4
2022-08-10T00:20:44.968Z,12.4
2022-08-10T00:21:44.961Z,12.5
2022-08-10T00:22:54.963Z,12.3
2022-08-10T00:23:44.967Z,12.3
2022-08-10T00:24:44.957Z,12.3
2022-08-10T00:25:44.973Z,12.2
2022-08-10T00:27:58.762Z,12.1
2022-08-10T00:28:01.917Z,12.1
2022-08-10T00:28:44.984Z,12.1
2022-08-10T00:29:44.962Z,12
2022-08-10T00:30:44.956Z,11.9
2022-08-10T00:31:57.688Z,12
2022-08-10T00:32:44.961Z,12
2022-08-10T00:33:44.961Z,11.9
2022-08-10T00:34:44.971Z,11.9
2022-08-10T00:35:44.967Z,11.9
2022-08-10T00:36:44.961Z,11.8
2022-08-10T00:37:44.971Z,11.9
2022-08-10T00:38:44.979Z,11.8
2022-08-10T00:39:45.013Z,11.9
2022-08-10T00:40:44.961Z,11.8
2022-08-10T00:41:44.974Z,11.9
2022-08-10T00:42:44.963Z,11.8
2022-08-10T00:43:44.964Z,11.8
2022-08-10T00:44:44.973Z,11.8
2022-08-10T00:45:44.966Z,11.7
2022-08-10T00:46:44.964Z,11.6
2022-08-10T00:47:44.977Z,11.6
2022-08-10T00:48:44.960Z,11.5
2022-08-10T00:49:44.958Z,11.5
2022-08-10T00:50:44.966Z,11.5
2022-08-10T00:51:48.548Z,11.5
2022-08-10T00:52:44.975Z,11.5
2022-08-10T00:53:44.964Z,11.5
2022-08-10T00:54:44.973Z,11.5
2022-08-10T00:57:12.691Z,11.6
2022-08-10T00:57:14.948Z,11.5
2022-08-10T00:57:44.987Z,11.4
2022-08-10T00:58:45.009Z,11.3
2022-08-10T00:59:58.820Z,11.4
2022-08-10T01:00:44.981Z,11.4
2022-08-10T01:02:11.216Z,11.4
2022-08-10T01:02:45.044Z,11.4
2022-08-10T01:04:40.196Z,11.5
2022-08-10T01:05:00.405Z,11.4
2022-08-10T01:05:51.423Z,11.4
2022-08-10T01:06:44.977Z,11.4
2022-08-10T01:07:44.984Z,11.2
2022-08-10T01:08:44.980Z,11.3
2022-08-10T01:09:44.978Z,11.2
2022-08-10T01:10:44.975Z,11.1
2022-08-10T01:12:37.408Z,11.1
2022-08-10T01:12:44.974Z,11.2
2022-08-10T01:13:44.964Z,11.2
2022-08-10T01:14:44.974Z,11.2
2022-08-10T01:15:44.995Z,11.1
2022-08-10T01:16:44.965Z,10.9
2022-08-10T01:17:51.161Z,11
2022-08-10T01:18:44.974Z,10.9
2022-08-10T01:19:44.987Z,10.9
2022-08-10T01:20:45.008Z,10.9
2022-08-10T01:21:56.762Z,10.8
2022-08-10T01:22:44.981Z,10.7
2022-08-10T01:23:44.987Z,10.7
2022-08-10T01:24:44.979Z,10.7
2022-08-10T01:26:11.547Z,10.8
2022-08-10T01:26:44.986Z,10.9
2022-08-10T01:27:44.997Z,10.9
2022-08-10T01:28:44.984Z,10.9
2022-08-10T01:29:44.975Z,10.8
2022-08-10T01:30:44.980Z,10.7
2022-08-10T01:31:45.078Z,10.7
2022-08-10T01:32:44.976Z,10.7
2022-08-10T01:33:59.050Z,10.7
2022-08-10T01:34:44.981Z,10.7
2022-08-10T01:35:44.980Z,10.7
2022-08-10T01:36:44.986Z,10.7
2022-08-10T01:37:51.899Z,10.7
2022-08-10T01:38:45.007Z,10.6
2022-08-10T01:39:45.083Z,10.6
2022-08-10T01:40:44.986Z,10.6
2022-08-10T01:41:46.935Z,10.6
2022-08-10T01:42:44.988Z,10.6
2022-08-10T01:44:44.989Z,10.6
2022-08-10T01:45:46.089Z,10.5
2022-08-10T01:46:44.991Z,10.5
2022-08-10T01:47:44.997Z,10.5
2022-08-10T01:48:44.998Z,10.5
2022-08-10T01:49:44.981Z,10.5
2022-08-10T01:50:58.872Z,10.5
2022-08-10T01:51:44.993Z,10.5
2022-08-10T01:52:45.000Z,10.5
2022-08-10T01:53:44.988Z,10.4
2022-08-10T01:54:44.997Z,10.4
2022-08-10T01:55:44.997Z,10.4
2022-08-10T01:56:44.987Z,10.4
2022-08-10T01:57:44.997Z,10.4
2022-08-10T01:58:45.009Z,10.4
2022-08-10T02:00:00.558Z,10.4
2022-08-10T02:00:45.003Z,10.4
2022-08-10T02:01:45.101Z,10.4
2022-08-10T02:02:45.018Z,10.4
2022-08-10T02:04:03.764Z,10.4
2022-08-10T02:04:44.989Z,10.3
2022-08-10T02:05:44.994Z,10.3
2022-08-10T02:06:44.999Z,10.4
2022-08-10T02:07:44.999Z,10.2
2022-08-10T02:08:44.987Z,10.3
2022-08-10T02:09:45.008Z,10.3
2022-08-10T02:10:44.995Z,10.3
2022-08-10T02:12:05.371Z,10.2
2022-08-10T02:12:45.300Z,10.2
2022-08-10T02:13:44.999Z,10.2
2022-08-10T02:14:45.015Z,10.2
2022-08-10T02:16:02.210Z,10.2
2022-08-10T02:16:45.013Z,10.1
2022-08-10T02:18:00.353Z,10.2
2022-08-10T02:18:44.987Z,10.3
2022-08-10T02:19:44.993Z,10.3
2022-08-10T02:20:44.991Z,10.3
2022-08-10T02:22:36.073Z,10.3
2022-08-10T02:22:44.995Z,10.2
2022-08-10T02:23:44.999Z,10.2
2022-08-10T02:24:45.018Z,10.3
2022-08-10T02:25:44.991Z,10.2
2022-08-10T02:26:45.014Z,10.2
2022-08-10T02:27:44.992Z,10.1
2022-08-10T02:28:44.981Z,10.1
2022-08-10T02:29:44.992Z,10.1
2022-08-10T02:30:44.994Z,10.1
2022-08-10T02:31:45.002Z,10.1
2022-08-10T02:32:49.627Z,10
2022-08-10T02:33:45.581Z,10
2022-08-10T02:34:44.999Z,10
2022-08-10T02:35:54.363Z,9.9
2022-08-10T02:36:44.998Z,9.9
2022-08-10T02:37:44.991Z,9.9
2022-08-10T02:38:59.037Z,9.9
2022-08-10T02:39:45.114Z,9.9
2022-08-10T02:45:01.479Z,9.9
2022-08-10T02:45:14.558Z,9.8
2022-08-10T02:45:14.710Z,9.9
2022-08-10T02:45:18.087Z,9.8
2022-08-10T02:45:23.752Z,9.9
2022-08-10T02:45:45.022Z,9.8
2022-08-10T02:46:44.998Z,9.8
2022-08-10T02:47:46.704Z,9.8
2022-08-10T02:48:45.040Z,9.8
2022-08-10T02:49:45.004Z,9.8
2022-08-10T02:50:45.001Z,9.8
2022-08-10T02:52:07.174Z,9.8
2022-08-10T02:52:45.024Z,9.7
2022-08-10T02:53:54.682Z,9.7
2022-08-10T02:54:45.011Z,9.6
2022-08-10T02:55:45.000Z,9.8
2022-08-10T02:56:45.012Z,9.8
2022-08-10T02:58:13.431Z,9.8
2022-08-10T02:58:45.023Z,9.7
2022-08-10T02:59:45.031Z,9.7
2022-08-10T03:00:45.184Z,9.6
2022-08-10T03:01:45.008Z,9.6
2022-08-10T03:02:45.007Z,9.6
2022-08-10T03:03:44.998Z,9.5
2022-08-10T03:04:55.118Z,9.5
2022-08-10T03:05:45.026Z,9.7
2022-08-10T03:06:45.008Z,9.7
2022-08-10T03:07:45.282Z,9.7
2022-08-10T03:08:45.008Z,9.7
2022-08-10T03:09:45.002Z,9.6
2022-08-10T03:10:45.005Z,9.6
2022-08-10T03:12:34.971Z,9.6
2022-08-10T03:12:45.004Z,9.5
2022-08-10T03:13:46.382Z,9.6
2022-08-10T03:14:45.008Z,9.6
2022-08-10T03:15:45.010Z,9.5
2022-08-10T03:16:45.034Z,9.6
2022-08-10T03:17:58.392Z,9.6
2022-08-10T03:18:45.012Z,9.4
2022-08-10T03:20:34.180Z,9.4
2022-08-10T03:20:45.003Z,9.4
2022-08-10T03:21:45.009Z,9.4
2022-08-10T03:22:45.038Z,9.4
2022-08-10T03:23:45.012Z,9.4
2022-08-10T03:24:45.014Z,9.4
2022-08-10T03:25:52.764Z,9.3
2022-08-10T03:26:45.010Z,9.3
2022-08-10T03:27:45.029Z,9.2
2022-08-10T03:28:45.007Z,9.3
2022-08-10T03:30:29.627Z,9.3
2022-08-10T03:30:45.026Z,9.2
2022-08-10T03:31:45.008Z,9.2
2022-08-10T03:32:45.018Z,9.2
2022-08-10T03:33:45.006Z,9.2
2022-08-10T03:34:45.001Z,9.2
2022-08-10T03:36:43.417Z,9.2
2022-08-10T03:36:45.263Z,9.2
2022-08-10T03:37:45.021Z,9.2
2022-08-10T03:38:45.015Z,9.1
2022-08-10T03:39:45.215Z,9.2
2022-08-10T03:40:46.714Z,9.2
2022-08-10T03:41:47.702Z,9.1
2022-08-10T03:42:45.014Z,9.1
2022-08-10T03:43:45.029Z,9.2
2022-08-10T03:44:49.883Z,9.1
2022-08-10T03:45:54.244Z,9.1
2022-08-10T03:46:45.017Z,9.1
2022-08-10T03:47:45.028Z,9.2
2022-08-10T03:48:49.093Z,9.2
2022-08-10T03:49:45.014Z,9
2022-08-10T03:50:51.312Z,9
2022-08-10T03:51:45.024Z,9
2022-08-10T03:52:45.034Z,8.9
2022-08-10T03:54:04.871Z,8.9
2022-08-10T03:54:45.030Z,8.9
2022-08-10T03:56:30.099Z,8.9
2022-08-10T03:56:45.078Z,8.9
2022-08-10T03:57:49.548Z,8.9
2022-08-10T03:58:45.030Z,8.9
2022-08-10T03:59:45.023Z,8.9
2022-08-10T04:00:45.044Z,8.8
2022-08-10T04:02:43.558Z,8.9
2022-08-10T04:02:48.385Z,8.9
2022-08-10T04:03:45.024Z,8.9
2022-08-10T04:04:45.020Z,8.9
2022-08-10T04:05:45.021Z,8.8
2022-08-10T04:06:45.031Z,8.9
2022-08-10T04:07:45.040Z,8.9
2022-08-10T04:08:45.039Z,8.9
2022-08-10T04:09:55.669Z,8.9
2022-08-10T04:10:45.017Z,8.9
2022-08-10T04:11:45.050Z,8.8
2022-08-10T04:12:45.019Z,8.9
2022-08-10T04:13:45.027Z,8.9
2022-08-10T04:14:49.803Z,8.8
2022-08-10T04:15:45.016Z,8.7
2022-08-10T04:16:45.031Z,8.7
2022-08-10T04:18:03.133Z,8.7
2022-08-10T04:18:45.036Z,8.8
2022-08-10T04:19:45.022Z,8.8
2022-08-10T04:20:45.032Z,8.8
2022-08-10T04:21:45.023Z,8.8
2022-08-10T04:23:46.963Z,8.8
2022-08-10T04:24:45.031Z,8.8
2022-08-10T04:25:45.038Z,8.8
2022-08-10T04:26:45.020Z,8.7
2022-08-10T04:27:45.014Z,8.7
2022-08-10T04:28:45.028Z,8.7
2022-08-10T04:29:45.017Z,8.7
2022-08-10T04:30:45.019Z,8.7
2022-08-10T04:31:45.033Z,8.8
2022-08-10T04:32:45.031Z,8.8
2022-08-10T04:33:45.026Z,8.7
2022-08-10T04:34:45.035Z,8.7
2022-08-10T04:35:45.024Z,8.7
2022-08-10T04:36:45.031Z,8.7
2022-08-10T04:37:47.489Z,8.7
2022-08-10T04:38:45.031Z,8.8
2022-08-10T04:39:45.075Z,8.8
2022-08-10T04:40:45.022Z,8.9
2022-08-10T04:41:46.162Z,8.9
2022-08-10T04:42:45.040Z,9
2022-08-10T04:43:45.021Z,9
2022-08-10T04:44:45.078Z,9
2022-08-10T04:45:50.369Z,9.1
2022-08-10T04:46:55.633Z,9
2022-08-10T04:47:57.826Z,9
2022-08-10T04:49:01.469Z,9
2022-08-10T04:49:56.520Z,9
2022-08-10T04:50:45.036Z,8.9
2022-08-10T04:51:45.026Z,9
2022-08-10T04:52:45.031Z,9
2022-08-10T04:54:05.222Z,9
2022-08-10T04:54:45.041Z,9
2022-08-10T04:55:45.022Z,9.1
2022-08-10T04:56:45.031Z,9.2
2022-08-10T04:57:45.047Z,9.3
2022-08-10T04:58:45.051Z,9.4
2022-08-10T04:59:45.035Z,9.4
2022-08-10T05:00:45.107Z,9.5
2022-08-10T05:02:28.022Z,9.6
2022-08-10T05:02:45.041Z,9.6
2022-08-10T05:04:36.150Z,9.7
2022-08-10T05:04:45.027Z,9.8
2022-08-10T05:05:45.027Z,9.7
2022-08-10T05:06:45.041Z,9.8
2022-08-10T05:07:54.207Z,9.8
2022-08-10T05:08:45.034Z,9.9
2022-08-10T05:10:04.554Z,9.9
2022-08-10T05:10:45.038Z,9.9
2022-08-10T05:11:45.037Z,9.9
2022-08-10T05:12:45.044Z,10
2022-08-10T05:13:45.031Z,10
2022-08-10T05:14:45.034Z,10.1
2022-08-10T05:15:45.044Z,10.1
2022-08-10T05:16:45.037Z,10.2
2022-08-10T05:18:08.193Z,10.2
2022-08-10T05:18:45.058Z,10.2
2022-08-10T05:20:03.841Z,10.1
2022-08-10T05:20:49.624Z,10
2022-08-10T05:21:56.991Z,9.9
2022-08-10T05:22:45.022Z,9.9
2022-08-10T05:23:45.038Z,9.9
2022-08-10T05:24:45.047Z,9.9
2022-08-10T05:25:45.046Z,9.9
2022-08-10T05:27:00.263Z,9.9
2022-08-10T05:27:45.054Z,9.9
2022-08-10T05:28:45.042Z,9.9
2022-08-10T05:29:45.027Z,9.9
2022-08-10T05:30:45.070Z,10
2022-08-10T05:31:45.038Z,10.1
2022-08-10T05:32:56.226Z,10
2022-08-10T05:33:45.037Z,10.1
2022-08-10T05:34:45.046Z,10.2
2022-08-10T05:35:57.462Z,10.1
2022-08-10T05:36:45.045Z,10.1
2022-08-10T05:38:10.782Z,10.1
2022-08-10T05:38:45.050Z,10.2
2022-08-10T05:39:45.135Z,10.2
2022-08-10T05:40:46.488Z,10.3
2022-08-10T05:41:48.701Z,10.3
2022-08-10T05:42:45.106Z,10.3
2022-08-10T05:43:45.047Z,10.3
2022-08-10T05:44:45.049Z,10.4
2022-08-10T05:46:17.101Z,10.5
2022-08-10T05:46:45.053Z,10.6
2022-08-10T05:48:41.609Z,10.6
2022-08-10T05:48:58.811Z,10.7
2022-08-10T05:49:45.036Z,10.7
2022-08-10T05:50:45.065Z,10.7
2022-08-10T05:51:45.059Z,10.6
2022-08-10T05:52:45.050Z,10.5
2022-08-10T05:54:02.029Z,10.6
2022-08-10T05:54:45.052Z,10.4
2022-08-10T05:55:45.041Z,10.4
2022-08-10T05:56:56.346Z,10.5
2022-08-10T05:57:45.039Z,10.5
2022-08-10T05:58:45.038Z,10.5
2022-08-10T06:00:12.681Z,10.5
2022-08-10T06:00:49.713Z,10.6
2022-08-10T06:01:45.048Z,10.6
2022-08-10T06:02:45.256Z,10.6
2022-08-10T06:03:45.050Z,10.6
2022-08-10T06:04:45.037Z,10.6
2022-08-10T06:05:45.077Z,10.6
2022-08-10T06:06:45.041Z,10.6
2022-08-10T06:07:45.117Z,10.6
2022-08-10T06:08:45.058Z,10.6
2022-08-10T06:09:59.818Z,10.7
2022-08-10T06:11:03.174Z,10.8
2022-08-10T06:12:26.315Z,11
2022-08-10T06:12:55.294Z,10.9
2022-08-10T06:13:59.595Z,10.9
2022-08-10T06:14:48.553Z,10.9
2022-08-10T06:15:51.515Z,11
2022-08-10T06:16:45.048Z,10.9
2022-08-10T06:17:45.052Z,11
2022-08-10T06:18:45.051Z,11.1
2022-08-10T06:19:45.054Z,11.1
2022-08-10T06:20:45.069Z,11.1
2022-08-10T06:22:00.391Z,11.3
2022-08-10T06:22:45.055Z,11.2
2022-08-10T06:23:45.050Z,11.4
2022-08-10T06:25:10.072Z,11.5
2022-08-10T06:26:09.630Z,11.6
2022-08-10T06:26:45.072Z,11.7
2022-08-10T06:27:45.054Z,12
2022-08-10T06:29:02.140Z,11.8
2022-08-10T06:29:45.088Z,11.6
2022-08-10T06:30:45.059Z,11.7
2022-08-10T06:31:48.985Z,11.7
2022-08-10T06:32:45.064Z,11.9
2022-08-10T06:33:45.062Z,11.9
2022-08-10T06:34:45.120Z,12.1
2022-08-10T06:35:45.101Z,12.1
2022-08-10T06:36:45.068Z,12.1
2022-08-10T06:37:50.814Z,12
2022-08-10T06:38:45.066Z,12.1
2022-08-10T06:39:46.244Z,12.1
2022-08-10T06:40:45.067Z,12.2
2022-08-10T06:42:14.292Z,12.5
2022-08-10T06:42:45.073Z,12.5
2022-08-10T06:43:45.056Z,12.1
2022-08-10T06:44:45.088Z,12.2
2022-08-10T06:45:45.070Z,12.2
2022-08-10T06:46:46.603Z,12.2
2022-08-10T06:47:45.074Z,12.5
2022-08-10T06:48:45.062Z,12.8
2022-08-10T06:49:45.054Z,13.1
2022-08-10T06:50:58.751Z,13.2
2022-08-10T06:51:45.074Z,13.1
2022-08-10T06:52:45.078Z,12.8
2022-08-10T06:53:52.022Z,12.9
2022-08-10T06:54:45.076Z,12.9
2022-08-10T06:55:55.492Z,12.9
2022-08-10T06:57:01.587Z,12.9
2022-08-10T06:57:45.055Z,12.9
2022-08-10T06:58:45.079Z,13.1
2022-08-10T06:59:45.225Z,13.2
2022-08-10T07:00:45.195Z,13.4
2022-08-10T07:01:45.060Z,13.2
2022-08-10T07:02:45.067Z,13.3
2022-08-10T07:03:45.065Z,13.4
2022-08-10T07:04:45.077Z,13.3
2022-08-10T07:05:48.001Z,13.5
2022-08-10T07:06:45.078Z,13.7
2022-08-10T07:07:45.062Z,13.4
2022-08-10T07:09:45.056Z,13.4
2022-08-10T07:10:46.335Z,13.6
2022-08-10T07:11:45.083Z,13.6
2022-08-10T07:12:45.077Z,13.7
2022-08-10T07:14:14.607Z,13.6
2022-08-10T07:14:45.073Z,14
2022-08-10T07:15:57.071Z,14.2
2022-08-10T07:16:45.067Z,14.4
2022-08-10T07:17:45.070Z,14.6
2022-08-10T07:18:45.091Z,14.5
2022-08-10T07:19:50.354Z,14.5
2022-08-10T07:20:45.078Z,14.5
2022-08-10T07:21:45.064Z,14.4
2022-08-10T07:23:08.651Z,14.1
2022-08-10T07:23:58.915Z,14.3
2022-08-10T07:24:45.057Z,14.5
2022-08-10T07:25:45.088Z,14.5
2022-08-10T07:26:45.082Z,14.6
2022-08-10T07:27:59.701Z,14.7
2022-08-10T07:28:48.105Z,14.6
2022-08-10T07:29:53.806Z,14.9
2022-08-10T07:30:45.086Z,14.6
2022-08-10T07:31:56.247Z,14.7
2022-08-10T07:32:45.078Z,14.7
2022-08-10T07:33:45.082Z,14.7
2022-08-10T07:34:45.087Z,14.8
2022-08-10T07:35:45.109Z,14.8
2022-08-10T07:36:45.085Z,14.8
2022-08-10T07:37:45.075Z,14.8
2022-08-10T07:38:45.083Z,14.8
2022-08-10T07:39:58.300Z,14.9
2022-08-10T07:40:45.250Z,15.1
2022-08-10T07:41:45.081Z,15.2
2022-08-10T07:42:45.963Z,15.3
2022-08-10T07:43:45.086Z,15.6
2022-08-10T07:44:45.111Z,15.5
2022-08-10T07:45:45.083Z,15.4
2022-08-10T07:46:45.092Z,15.5
2022-08-10T07:47:52.481Z,15.7
2022-08-10T07:48:45.104Z,15.5
2022-08-10T07:49:45.091Z,15.7
2022-08-10T07:50:45.093Z,15.9
2022-08-10T07:51:45.083Z,15.9
2022-08-10T07:52:45.085Z,15.8
2022-08-10T07:53:45.114Z,15.9
2022-08-10T07:54:45.078Z,15.8
2022-08-10T07:56:03.710Z,15.7
2022-08-10T07:56:49.443Z,15.6
2022-08-10T07:57:45.076Z,15.9
2022-08-10T07:58:51.513Z,15.9
2022-08-10T07:59:45.120Z,16.2
2022-08-10T08:00:45.086Z,16.3
2022-08-10T08:01:45.145Z,16.5
2022-08-10T08:02:45.093Z,16.4
2022-08-10T08:03:45.089Z,16.5
2022-08-10T08:04:45.087Z,16.5
2022-08-10T08:05:58.056Z,16.3
2022-08-10T08:06:45.112Z,16.7
2022-08-10T08:07:45.089Z,16.7
2022-08-10T08:08:45.101Z,16.8
2022-08-10T08:09:57.835Z,16.3
2022-08-10T08:10:45.096Z,16.5
2022-08-10T08:11:45.101Z,17
2022-08-10T08:12:45.101Z,16.8
2022-08-10T08:13:45.087Z,16.7
2022-08-10T08:14:45.106Z,16.7
2022-08-10T08:16:20.612Z,17.1
2022-08-10T08:16:45.105Z,17.7
2022-08-10T08:17:45.102Z,18
2022-08-10T08:18:58.142Z,17.8
2022-08-10T08:19:46.015Z,18.1
2022-08-10T08:20:45.115Z,17.9
2022-08-10T08:24:04.780Z,18
2022-08-10T08:24:05.776Z,18.1
2022-08-10T08:24:07.378Z,18.1
2022-08-10T08:24:45.112Z,18.1
2022-08-10T08:25:45.114Z,18
2022-08-10T08:26:46.159Z,18
2022-08-10T08:27:47.722Z,18.1
2022-08-10T08:28:45.112Z,18.1
2022-08-10T08:29:45.123Z,18.1
2022-08-10T08:30:48.768Z,18
2022-08-10T08:31:59.128Z,17.8
2022-08-10T08:32:45.098Z,18.2
2022-08-10T08:33:45.101Z,18.6
2022-08-10T08:34:45.114Z,18.6
2022-08-10T08:35:45.100Z,18.3
2022-08-10T08:38:33.738Z,18.5
2022-08-10T08:38:45.107Z,18.7
2022-08-10T08:39:39.794Z,18.7
2022-08-10T08:40:45.110Z,18.6
2022-08-10T08:41:45.103Z,18.8
2022-08-10T08:42:45.117Z,18.7
2022-08-10T08:43:45.131Z,18.1
2022-08-10T08:44:45.194Z,18.3
2022-08-10T08:45:50.961Z,18.5
2022-08-10T08:46:45.112Z,18.4
2022-08-10T08:48:04.893Z,18.4
2022-08-10T08:48:45.103Z,18.6
2022-08-10T08:50:08.623Z,19.2
2022-08-10T08:50:45.102Z,19
2022-08-10T08:52:09.463Z,19.1
2022-08-10T08:52:45.127Z,18.9
2022-08-10T08:54:02.982Z,18.6
2022-08-10T08:54:45.106Z,18.5
2022-08-10T08:56:02.845Z,19
2022-08-10T08:56:50.008Z,18.9
2022-08-10T08:57:50.543Z,18.8
2022-08-10T08:58:45.111Z,19
2022-08-10T08:59:45.132Z,19.2
2022-08-10T09:00:45.118Z,19.5
2022-08-10T09:01:45.158Z,19.4
2022-08-10T09:02:45.122Z,19.7
2022-08-10T09:03:45.112Z,19.1
2022-08-10T09:04:45.118Z,19.3
2022-08-10T09:05:58.773Z,19.1
2022-08-10T09:06:45.146Z,19.2
2022-08-10T09:08:01.746Z,19.1
2022-08-10T09:08:45.140Z,19.1
2022-08-10T09:10:45.127Z,19.1
2022-08-10T09:11:45.178Z,19
2022-08-10T09:12:45.118Z,19
2022-08-10T09:13:45.120Z,19.2
2022-08-10T09:14:45.133Z,19.1
2022-08-10T09:15:45.110Z,18.9
2022-08-10T09:16:45.113Z,18.7
2022-08-10T09:17:45.122Z,18.8
2022-08-10T09:18:45.128Z,18.9
2022-08-10T09:19:45.120Z,18.8
2022-08-10T09:20:45.118Z,18.9
2022-08-10T09:21:59.225Z,18.7
2022-08-10T09:22:45.127Z,19
2022-08-10T09:24:04.704Z,18.8
2022-08-10T09:24:45.138Z,19
2022-08-10T09:25:45.143Z,19.5
2022-08-10T09:26:45.132Z,19.3
2022-08-10T09:27:45.116Z,20.4
2022-08-10T09:28:45.127Z,19.9
2022-08-10T09:29:45.138Z,20
2022-08-10T09:31:10.765Z,20.2
2022-08-10T09:33:07.629Z,20
2022-08-10T09:36:14.520Z,20.5
2022-08-10T09:36:20.692Z,20.8
2022-08-10T09:36:23.355Z,20.7
2022-08-10T09:36:27.765Z,20.7
2022-08-10T09:36:45.126Z,20.2
2022-08-10T09:38:01.889Z,20.1
2022-08-10T09:38:45.137Z,20.3
2022-08-10T09:40:58.180Z,20.7
2022-08-10T09:41:00.608Z,20.9
2022-08-10T09:41:45.247Z,21.1
2022-08-10T09:42:49.734Z,21.1
2022-08-10T09:43:45.128Z,21.6
2022-08-10T09:44:58.045Z,21.2
2022-08-10T09:45:45.140Z,20.8
2022-08-10T09:46:45.140Z,20.7
2022-08-10T09:48:01.151Z,20.9
2022-08-10T09:48:45.175Z,20.8
2022-08-10T09:49:57.837Z,21.7
2022-08-10T09:51:22.716Z,21
2022-08-10T09:51:46.619Z,21.4
2022-08-10T09:52:45.145Z,21.3
2022-08-10T09:53:45.134Z,21.7
2022-08-10T09:54:45.147Z,21.6
2022-08-10T09:56:18.079Z,21.6
2022-08-10T09:56:45.150Z,21.5
2022-08-10T09:57:46.604Z,21.3
2022-08-10T09:58:45.143Z,20.9
2022-08-10T10:00:00.569Z,21.9
2022-08-10T10:00:45.140Z,21.6
2022-08-10T10:01:58.514Z,22
2022-08-10T10:02:45.188Z,22.1
2022-08-10T10:03:45.253Z,21.9
2022-08-10T10:04:45.172Z,21.9
2022-08-10T10:05:51.298Z,22.3
2022-08-10T10:06:45.159Z,22.2
2022-08-10T10:07:45.144Z,22.1
2022-08-10T10:08:45.166Z,22
2022-08-10T10:09:45.152Z,21.7
2022-08-10T10:10:47.851Z,22
2022-08-10T10:11:45.151Z,21.9
2022-08-10T10:12:45.151Z,22
2022-08-10T10:14:02.856Z,22
2022-08-10T10:14:45.182Z,21.5
2022-08-10T10:15:45.144Z,21.4
2022-08-10T10:16:45.171Z,21.7
2022-08-10T10:17:45.149Z,21.5
2022-08-10T10:18:45.156Z,21.7
2022-08-10T10:19:45.152Z,22
2022-08-10T10:20:45.167Z,21.6
2022-08-10T10:21:53.948Z,21.6
2022-08-10T10:22:45.149Z,22.3
2022-08-10T10:24:05.386Z,22.2
2022-08-10T10:24:45.152Z,21.8
2022-08-10T10:25:51.361Z,21.9
2022-08-10T10:26:45.152Z,21.9
2022-08-10T10:27:45.152Z,21.7
2022-08-10T10:29:19.559Z,22
2022-08-10T10:29:57.175Z,22.4
2022-08-10T10:30:45.185Z,22.5
2022-08-10T10:31:45.146Z,22
2022-08-10T10:32:45.160Z,22.1
2022-08-10T10:33:45.244Z,22.1
2022-08-10T10:34:45.145Z,21.8
2022-08-10T10:35:45.170Z,21.9
2022-08-10T10:36:45.175Z,21.9
2022-08-10T10:38:01.382Z,21.8
2022-08-10T10:38:45.154Z,21.9
2022-08-10T10:39:45.223Z,21.7
2022-08-10T10:40:45.185Z,22.1
2022-08-10T10:42:03.225Z,22.2
2022-08-10T10:42:45.821Z,22.3
2022-08-10T10:43:45.175Z,22.1
2022-08-10T10:44:45.187Z,21.8
2022-08-10T10:45:50.774Z,21.9
2022-08-10T10:46:45.159Z,22.1
2022-08-10T10:47:45.178Z,22.2
2022-08-10T10:48:45.160Z,22.1
2022-08-10T10:49:45.161Z,22.4
2022-08-10T10:50:45.180Z,22.3
2022-08-10T10:51:45.172Z,22.3
2022-08-10T10:52:45.167Z,22.1
2022-08-10T10:53:45.190Z,22.5
2022-08-10T10:54:45.163Z,22.4
2022-08-10T10:55:49.983Z,22.5
2022-08-10T10:56:45.175Z,22.2
2022-08-10T10:57:59.026Z,22.2
2022-08-10T10:58:45.165Z,22.2
2022-08-10T10:59:55.202Z,22
2022-08-10T11:00:45.171Z,22
2022-08-10T11:01:45.250Z,21.7
2022-08-10T11:02:45.169Z,22
2022-08-10T11:03:45.166Z,22.3
2022-08-10T11:04:45.197Z,22.2
2022-08-10T11:05:45.180Z,22.6
2022-08-10T11:06:45.181Z,22.5
2022-08-10T11:07:45.966Z,22.8
2022-08-10T11:08:45.183Z,22.6
2022-08-10T11:10:05.114Z,22.2
2022-08-10T11:10:47.091Z,22.2
2022-08-10T11:12:01.330Z,22.2
2022-08-10T11:12:46.767Z,22.1
2022-08-10T11:14:25.316Z,22.2
2022-08-10T11:14:45.192Z,22.2
2022-08-10T11:15:47.666Z,22.5
2022-08-10T11:16:45.203Z,22.2
2022-08-10T11:17:45.193Z,22.7
2022-08-10T11:18:45.171Z,22.9
2022-08-10T11:20:01.820Z,23.2
2022-08-10T11:20:45.189Z,23.1
2022-08-10T11:21:45.178Z,23.1
2022-08-10T11:22:45.184Z,22.9
2022-08-10T11:23:45.193Z,22.9
2022-08-10T11:24:49.777Z,23.3
2022-08-10T11:25:45.196Z,23.2
2022-08-10T11:26:45.192Z,23.1
2022-08-10T11:27:45.183Z,23
2022-08-10T11:28:45.187Z,22.7
2022-08-10T11:29:49.632Z,22.7
2022-08-10T11:30:45.190Z,23
2022-08-10T11:31:45.180Z,23.4
2022-08-10T11:32:45.180Z,23.4
2022-08-10T11:34:48.383Z,23
2022-08-10T11:35:45.192Z,23.1
2022-08-10T11:36:45.214Z,22.8
2022-08-10T11:38:30.167Z,23.2
2022-08-10T11:39:11.033Z,23.1
2022-08-10T11:39:49.338Z,23.3
2022-08-10T11:40:45.191Z,23.5
2022-08-10T11:42:12.498Z,23.3
2022-08-10T11:42:45.182Z,23.1
2022-08-10T11:43:45.184Z,23
2022-08-10T11:44:45.220Z,23.3
2022-08-10T11:45:52.260Z,23.3
2022-08-10T11:46:45.189Z,23.2
2022-08-10T11:47:45.184Z,23
2022-08-10T11:48:54.195Z,23.1
2022-08-10T11:49:45.196Z,23
2022-08-10T11:50:45.191Z,23.2
2022-08-10T11:51:45.219Z,23.2
2022-08-10T11:52:45.189Z,23
2022-08-10T11:53:45.210Z,23.2
2022-08-10T11:54:45.195Z,23.2
2022-08-10T11:55:45.194Z,23.1
2022-08-10T11:56:45.196Z,23.3
2022-08-10T11:57:54.696Z,23.1
2022-08-10T11:58:45.197Z,23.5
2022-08-10T11:59:45.227Z,23.9
2022-08-10T12:00:45.213Z,23.4
2022-08-10T12:01:45.185Z,23.4
2022-08-10T12:02:45.282Z,22.9
2022-08-10T12:03:45.224Z,22.7
2022-08-10T12:04:45.198Z,22.6
2022-08-10T12:05:54.201Z,22.9
2022-08-10T12:06:55.776Z,22.8
2022-08-10T12:08:54.647Z,22.7
2022-08-10T12:10:06.305Z,22.5
2022-08-10T12:10:10.300Z,22.6
2022-08-10T12:10:45.225Z,23.2
2022-08-10T12:11:45.198Z,22.9
2022-08-10T12:12:45.194Z,22.8
2022-08-10T12:14:04.366Z,23.4
2022-08-10T12:14:45.217Z,23.5
2022-08-10T12:15:45.209Z,23.4
2022-08-10T12:16:45.204Z,23.1
2022-08-10T12:17:45.214Z,23.4
2022-08-10T12:18:45.200Z,23.4
2022-08-10T12:19:59.574Z,23.2
2022-08-10T12:20:45.218Z,23.1
2022-08-10T12:21:45.210Z,23.2
2022-08-10T12:22:45.225Z,23.3
2022-08-10T12:23:45.260Z,23.2
2022-08-10T12:24:45.230Z,23.6
2022-08-10T12:25:56.797Z,23.5
2022-08-10T12:26:45.211Z,23.6
2022-08-10T12:27:45.203Z,23.4
2022-08-10T12:28:49.987Z,23.2
2022-08-10T12:29:45.255Z,23
2022-08-10T12:30:45.291Z,23
2022-08-10T12:31:45.211Z,22.8
2022-08-10T12:32:45.213Z,22.7
2022-08-10T12:34:02.565Z,22.8
2022-08-10T12:34:50.145Z,22.8
2022-08-10T12:36:01.747Z,22.7
2022-08-10T12:36:45.237Z,22.8
2022-08-10T12:37:45.214Z,22.5
2022-08-10T12:38:45.227Z,22.6
2022-08-10T12:39:45.309Z,22.5
2022-08-10T12:40:45.226Z,23
2022-08-10T12:41:45.633Z,23.1
2022-08-10T12:42:45.219Z,23.4
2022-08-10T12:44:04.347Z,23.6
2022-08-10T12:44:45.223Z,23.6
2022-08-10T12:45:45.228Z,23.6
2022-08-10T12:46:45.220Z,23.8
2022-08-10T12:47:45.219Z,23.6
2022-08-10T12:48:45.240Z,23.5
2022-08-10T12:50:31.426Z,23.5
2022-08-10T12:50:45.247Z,23.6
2022-08-10T12:51:46.871Z,23.3
2022-08-10T12:52:45.226Z,23.4
2022-08-10T12:53:45.215Z,23.5
2022-08-10T12:54:45.237Z,23.8
2022-08-10T12:55:45.242Z,23.7
2022-08-10T12:56:45.236Z,24
2022-08-10T12:57:45.238Z,23.8
2022-08-10T12:59:00.305Z,24
2022-08-10T12:59:45.229Z,23.9
2022-08-10T13:01:12.875Z,23.9
2022-08-10T13:02:06.631Z,23.8
2022-08-10T13:02:48.834Z,24
2022-08-10T13:04:20.873Z,24.3
2022-08-10T13:04:45.233Z,24
2022-08-10T13:06:02.024Z,23.8
2022-08-10T13:06:45.254Z,23.8
2022-08-10T13:08:25.770Z,23.9
2022-08-10T13:08:45.230Z,23.7
2022-08-10T13:09:56.618Z,23.4
2022-08-10T13:10:45.250Z,23.7
2022-08-10T13:12:35.450Z,23.5
2022-08-10T13:12:45.379Z,23.3
2022-08-10T13:13:45.245Z,23.3
2022-08-10T13:14:45.241Z,23.5
2022-08-10T13:15:50.538Z,23.5
2022-08-10T13:16:45.255Z,23.7
2022-08-10T13:17:45.239Z,23.5
2022-08-10T13:18:45.240Z,23.8
2022-08-10T13:19:54.857Z,23.7
2022-08-10T13:20:45.243Z,23.3
2022-08-10T13:21:45.253Z,23.7
2022-08-10T13:22:45.242Z,23.5
2022-08-10T13:24:04.347Z,23.5
2022-08-10T13:24:45.305Z,23.4
2022-08-10T13:25:45.272Z,23.2
2022-08-10T13:27:24.665Z,23.6
2022-08-10T13:28:00.499Z,23.3
2022-08-10T13:28:45.762Z,23.6
2022-08-10T13:29:45.255Z,23.5
2022-08-10T13:30:45.246Z,24
2022-08-10T13:32:03.664Z,24
2022-08-10T13:32:45.249Z,23.8
2022-08-10T13:34:41.094Z,24.1
2022-08-10T13:34:45.530Z,24.3
2022-08-10T13:35:45.247Z,24.7